Pinewood, Vermont
Current Conditions -  °F | °C
As of 7:54 PM on Thursday 18 Dec 2014 (Local Time) from KBTV Reporting Station
Light Snow Light Snow  
Wind Chill: 21°   Ceiling: 1900
Heat Index: 31°   Visibility: 9mi
Dew Point: 24°   Wind: 13mph
Humidity: 76%   Direction: 310°NW
Pressure: 29.93"   Gusts: NA
Location:  44.5358°N, 73.0548°W
Report Text: KBTV 190054Z 31011KT 9SM -SN BKN019 OVC025 M01/M04 A2993 RMK AO2 SLP137 P0000 T10061044
Loading
Personal Weather Stations






























Interactive Weather Map New forecast layout! Learn more

10-Day Weather Forecast

Advertisements
Track Severe Weather on mobile